sensor_id;sensor_type;location;lat;lon;timestamp;pressure;altitude;pressure_sealevel;temperature;humidity
81372;BME280;70827;52.206;5.294;2024-02-23T00:01:34;98490.97;;;4.33;87.47
81372;BME280;70827;52.206;5.294;2024-02-23T00:04:00;98498.47;;;4.41;87.82
81372;BME280;70827;52.206;5.294;2024-02-23T00:06:25;98506.03;;;4.45;87.78
81372;BME280;70827;52.206;5.294;2024-02-23T00:08:51;98514.53;;;4.47;87.92
81372;BME280;70827;52.206;5.294;2024-02-23T00:11:16;98518.69;;;4.51;87.91
81372;BME280;70827;52.206;5.294;2024-02-23T00:13:42;98532.13;;;4.61;88.16
81372;BME280;70827;52.206;5.294;2024-02-23T00:16:08;98521.72;;;4.66;88.08
81372;BME280;70827;52.206;5.294;2024-02-23T00:18:36;98530.81;;;4.77;87.49
81372;BME280;70827;52.206;5.294;2024-02-23T00:21:02;98518.78;;;4.79;87.40
81372;BME280;70827;52.206;5.294;2024-02-23T00:23:27;98540.06;;;4.83;87.45
81372;BME280;70827;52.206;5.294;2024-02-23T00:25:53;98535.69;;;4.88;87.20
81372;BME280;70827;52.206;5.294;2024-02-23T00:28:19;98540.91;;;4.83;87.43
81372;BME280;70827;52.206;5.294;2024-02-23T00:30:44;98539.03;;;4.90;87.24
81372;BME280;70827;52.206;5.294;2024-02-23T00:33:10;98539.13;;;4.86;87.34
81372;BME280;70827;52.206;5.294;2024-02-23T00:35:38;98539.13;;;4.86;86.98
81372;BME280;70827;52.206;5.294;2024-02-23T00:38:04;98536.50;;;4.89;87.38
81372;BME280;70827;52.206;5.294;2024-02-23T00:40:30;98526.28;;;4.87;87.06
81372;BME280;70827;52.206;5.294;2024-02-23T00:42:55;98543.19;;;4.94;86.70
81372;BME280;70827;52.206;5.294;2024-02-23T00:45:21;98543.16;;;4.96;86.54
81372;BME280;70827;52.206;5.294;2024-02-23T00:47:47;98549.00;;;5.01;85.91
81372;BME280;70827;52.206;5.294;2024-02-23T00:50:12;98552.72;;;4.91;86.07
81372;BME280;70827;52.206;5.294;2024-02-23T00:52:41;98556.59;;;5.05;85.95
81372;BME280;70827;52.206;5.294;2024-02-23T00:55:07;98560.19;;;4.98;85.83
81372;BME280;70827;52.206;5.294;2024-02-23T00:57:33;98579.88;;;4.98;85.96
81372;BME280;70827;52.206;5.294;2024-02-23T00:59:58;98573.13;;;4.95;85.86
81372;BME280;70827;52.206;5.294;2024-02-23T01:02:24;98582.50;;;4.96;85.72
81372;BME280;70827;52.206;5.294;2024-02-23T01:04:50;98587.50;;;5.01;85.55
81372;BME280;70827;52.206;5.294;2024-02-23T01:07:15;98580.56;;;5.04;85.54
81372;BME280;70827;52.206;5.294;2024-02-23T01:09:43;98596.03;;;5.01;85.30
81372;BME280;70827;52.206;5.294;2024-02-23T01:12:09;98594.25;;;5.05;84.57
81372;BME280;70827;52.206;5.294;2024-02-23T01:14:35;98588.09;;;5.10;84.13
81372;BME280;70827;52.206;5.294;2024-02-23T01:17:00;98589.88;;;5.08;83.55
81372;BME280;70827;52.206;5.294;2024-02-23T01:19:26;98613.13;;;5.04;83.67
81372;BME280;70827;52.206;5.294;2024-02-23T01:21:51;98590.47;;;4.87;84.69
81372;BME280;70827;52.206;5.294;2024-02-23T01:24:17;98609.19;;;4.91;85.12
81372;BME280;70827;52.206;5.294;2024-02-23T01:26:45;98596.41;;;4.89;85.48
81372;BME280;70827;52.206;5.294;2024-02-23T01:29:11;98612.69;;;4.87;85.74
81372;BME280;70827;52.206;5.294;2024-02-23T01:31:36;98623.25;;;4.76;84.83
81372;BME280;70827;52.206;5.294;2024-02-23T01:34:02;98623.56;;;4.64;84.56
81372;BME280;70827;52.206;5.294;2024-02-23T01:36:28;98634.63;;;4.66;84.26
81372;BME280;70827;52.206;5.294;2024-02-23T01:38:53;98635.81;;;4.52;84.68
81372;BME280;70827;52.206;5.294;2024-02-23T01:41:19;98626.47;;;4.50;84.98
81372;BME280;70827;52.206;5.294;2024-02-23T01:43:47;98646.13;;;4.51;84.54
81372;BME280;70827;52.206;5.294;2024-02-23T01:46:13;98652.25;;;4.45;84.27
81372;BME280;70827;52.206;5.294;2024-02-23T01:48:38;98654.72;;;4.48;84.78
81372;BME280;70827;52.206;5.294;2024-02-23T01:51:04;98659.31;;;4.37;85.14
81372;BME280;70827;52.206;5.294;2024-02-23T01:53:30;98648.16;;;4.38;85.39
81372;BME280;70827;52.206;5.294;2024-02-23T01:55:55;98651.63;;;4.36;85.92
81372;BME280;70827;52.206;5.294;2024-02-23T01:58:22;98660.16;;;4.36;86.73
81372;BME280;70827;52.206;5.294;2024-02-23T02:00:50;98675.53;;;4.38;87.82
81372;BME280;70827;52.206;5.294;2024-02-23T02:03:16;98667.97;;;4.32;88.33
81372;BME280;70827;52.206;5.294;2024-02-23T02:05:42;98670.56;;;4.30;88.31
81372;BME280;70827;52.206;5.294;2024-02-23T02:08:07;98680.41;;;4.11;88.25
81372;BME280;70827;52.206;5.294;2024-02-23T02:10:33;98699.00;;;4.21;88.06
81372;BME280;70827;52.206;5.294;2024-02-23T02:13:02;98680.13;;;4.23;88.31
81372;BME280;70827;52.206;5.294;2024-02-23T02:15:27;98673.13;;;4.30;88.81
81372;BME280;70827;52.206;5.294;2024-02-23T02:17:56;98673.94;;;4.32;89.29
81372;BME280;70827;52.206;5.294;2024-02-23T02:20:24;98655.25;;;4.27;89.39
81372;BME280;70827;52.206;5.294;2024-02-23T02:22:50;98689.72;;;4.15;90.07
81372;BME280;70827;52.206;5.294;2024-02-23T02:25:16;98686.47;;;4.07;90.48
81372;BME280;70827;52.206;5.294;2024-02-23T02:27:41;98683.72;;;4.15;90.70
81372;BME280;70827;52.206;5.294;2024-02-23T02:30:07;98684.50;;;4.20;90.57
81372;BME280;70827;52.206;5.294;2024-02-23T02:32:33;98681.84;;;4.23;90.77
81372;BME280;70827;52.206;5.294;2024-02-23T02:35:01;98684.19;;;4.32;91.23
81372;BME280;70827;52.206;5.294;2024-02-23T02:37:27;98682.38;;;4.37;91.36
81372;BME280;70827;52.206;5.294;2024-02-23T02:39:53;98674.66;;;4.39;91.41
81372;BME280;70827;52.206;5.294;2024-02-23T02:42:18;98684.97;;;4.36;91.28
81372;BME280;70827;52.206;5.294;2024-02-23T02:44:44;98681.38;;;4.43;90.76
81372;BME280;70827;52.206;5.294;2024-02-23T02:47:10;98686.63;;;4.38;90.94
81372;BME280;70827;52.206;5.294;2024-02-23T02:49:35;98687.31;;;4.45;90.86
81372;BME280;70827;52.206;5.294;2024-02-23T02:52:04;98696.69;;;4.46;90.83
81372;BME280;70827;52.206;5.294;2024-02-23T02:54:29;98681.50;;;4.38;90.90
81372;BME280;70827;52.206;5.294;2024-02-23T02:56:55;98699.16;;;4.50;90.65
81372;BME280;70827;52.206;5.294;2024-02-23T02:59:21;98702.63;;;4.48;90.49
81372;BME280;70827;52.206;5.294;2024-02-23T03:01:46;98714.66;;;4.46;90.09
81372;BME280;70827;52.206;5.294;2024-02-23T03:04:12;98701.00;;;4.45;90.08
81372;BME280;70827;52.206;5.294;2024-02-23T03:06:37;98699.19;;;4.49;89.98
81372;BME280;70827;52.206;5.294;2024-02-23T03:09:06;98698.56;;;4.39;89.68
81372;BME280;70827;52.206;5.294;2024-02-23T03:11:31;98718.19;;;4.42;89.56
81372;BME280;70827;52.206;5.294;2024-02-23T03:13:57;98723.44;;;4.37;89.40
81372;BME280;70827;52.206;5.294;2024-02-23T03:16:23;98721.75;;;4.35;88.87
81372;BME280;70827;52.206;5.294;2024-02-23T03:18:48;98712.34;;;4.35;89.06
81372;BME280;70827;52.206;5.294;2024-02-23T03:21:14;98732.00;;;4.35;88.66
81372;BME280;70827;52.206;5.294;2024-02-23T03:23:40;98711.56;;;4.32;88.46
81372;BME280;70827;52.206;5.294;2024-02-23T03:26:09;98704.13;;;4.21;88.23
81372;BME280;70827;52.206;5.294;2024-02-23T03:28:34;98725.34;;;4.28;88.15
81372;BME280;70827;52.206;5.294;2024-02-23T03:31:00;98728.72;;;4.30;88.36
81372;BME280;70827;52.206;5.294;2024-02-23T03:33:26;98735.44;;;4.34;88.00
81372;BME280;70827;52.206;5.294;2024-02-23T03:35:51;98737.09;;;4.38;87.59
81372;BME280;70827;52.206;5.294;2024-02-23T03:38:17;98721.91;;;4.29;87.98
81372;BME280;70827;52.206;5.294;2024-02-23T03:40:43;98717.75;;;4.23;87.72
81372;BME280;70827;52.206;5.294;2024-02-23T03:43:11;98733.94;;;4.25;87.51
81372;BME280;70827;52.206;5.294;2024-02-23T03:45:37;98729.78;;;4.19;87.66
81372;BME280;70827;52.206;5.294;2024-02-23T03:48:02;98738.25;;;4.25;87.62
81372;BME280;70827;52.206;5.294;2024-02-23T03:50:28;98751.97;;;4.22;87.43
81372;BME280;70827;52.206;5.294;2024-02-23T03:52:54;98739.34;;;4.13;87.32
81372;BME280;70827;52.206;5.294;2024-02-23T03:55:20;98733.28;;;4.15;87.29
81372;BME280;70827;52.206;5.294;2024-02-23T03:57:45;98728.34;;;4.08;87.49
81372;BME280;70827;52.206;5.294;2024-02-23T04:00:14;98740.31;;;4.07;87.37
81372;BME280;70827;52.206;5.294;2024-02-23T04:02:40;98751.31;;;4.12;87.73
81372;BME280;70827;52.206;5.294;2024-02-23T04:05:07;98747.13;;;4.08;87.73
81372;BME280;70827;52.206;5.294;2024-02-23T04:07:32;98740.41;;;4.04;87.43
81372;BME280;70827;52.206;5.294;2024-02-23T04:09:58;98727.06;;;3.88;87.86
81372;BME280;70827;52.206;5.294;2024-02-23T04:12:24;98737.03;;;4.01;87.75
81372;BME280;70827;52.206;5.294;2024-02-23T04:14:50;98751.56;;;4.00;88.03
81372;BME280;70827;52.206;5.294;2024-02-23T04:17:22;98736.19;;;4.00;87.92
81372;BME280;70827;52.206;5.294;2024-02-23T04:19:47;98747.34;;;3.98;88.28
81372;BME280;70827;52.206;5.294;2024-02-23T04:22:13;98767.00;;;3.97;88.31
81372;BME280;70827;52.206;5.294;2024-02-23T04:24:40;98761.19;;;3.90;88.05
81372;BME280;70827;52.206;5.294;2024-02-23T04:27:06;98766.25;;;3.93;88.09
81372;BME280;70827;52.206;5.294;2024-02-23T04:29:31;98757.59;;;3.98;88.33
81372;BME280;70827;52.206;5.294;2024-02-23T04:31:57;98770.44;;;3.96;88.25
81372;BME280;70827;52.206;5.294;2024-02-23T04:34:26;98779.72;;;4.02;88.33
81372;BME280;70827;52.206;5.294;2024-02-23T04:36:51;98772.03;;;4.03;88.10
81372;BME280;70827;52.206;5.294;2024-02-23T04:39:17;98768.69;;;3.98;88.10
81372;BME280;70827;52.206;5.294;2024-02-23T04:41:42;98778.84;;;4.03;88.32
81372;BME280;70827;52.206;5.294;2024-02-23T04:44:08;98780.75;;;3.95;88.29
81372;BME280;70827;52.206;5.294;2024-02-23T04:46:34;98778.06;;;3.99;87.90
81372;BME280;70827;52.206;5.294;2024-02-23T04:48:59;98788.41;;;3.96;88.05
81372;BME280;70827;52.206;5.294;2024-02-23T04:51:27;98783.22;;;3.98;88.46
81372;BME280;70827;52.206;5.294;2024-02-23T04:53:53;98770.63;;;3.88;88.08
81372;BME280;70827;52.206;5.294;2024-02-23T04:56:19;98778.88;;;4.01;88.26
81372;BME280;70827;52.206;5.294;2024-02-23T04:58:45;98783.16;;;4.01;88.21
81372;BME280;70827;52.206;5.294;2024-02-23T05:01:10;98778.03;;;4.01;88.07
81372;BME280;70827;52.206;5.294;2024-02-23T05:03:36;98794.16;;;4.07;88.31
81372;BME280;70827;52.206;5.294;2024-02-23T05:06:02;98783.03;;;4.08;88.53
81372;BME280;70827;52.206;5.294;2024-02-23T05:08:30;98775.28;;;4.11;88.14
81372;BME280;70827;52.206;5.294;2024-02-23T05:10:56;98790.50;;;4.17;88.12
81372;BME280;70827;52.206;5.294;2024-02-23T05:13:22;98788.06;;;4.13;88.04
81372;BME280;70827;52.206;5.294;2024-02-23T05:15:48;98780.22;;;4.19;87.67
81372;BME280;70827;52.206;5.294;2024-02-23T05:18:13;98784.50;;;4.20;87.65
81372;BME280;70827;52.206;5.294;2024-02-23T05:20:39;98786.03;;;4.27;87.78
81372;BME280;70827;52.206;5.294;2024-02-23T05:23:05;98785.31;;;4.22;87.61
81372;BME280;70827;52.206;5.294;2024-02-23T05:25:33;98774.25;;;4.18;87.22
81372;BME280;70827;52.206;5.294;2024-02-23T05:27:59;98786.88;;;4.28;87.32
81372;BME280;70827;52.206;5.294;2024-02-23T05:30:24;98794.47;;;4.32;87.40
81372;BME280;70827;52.206;5.294;2024-02-23T05:32:50;98789.47;;;4.28;87.18
81372;BME280;70827;52.206;5.294;2024-02-23T05:35:16;98796.16;;;4.33;86.87
81372;BME280;70827;52.206;5.294;2024-02-23T05:37:41;98792.75;;;4.33;87.16
81372;BME280;70827;52.206;5.294;2024-02-23T05:40:07;98793.59;;;4.33;87.07
81372;BME280;70827;52.206;5.294;2024-02-23T05:42:36;98793.63;;;4.32;86.63
81372;BME280;70827;52.206;5.294;2024-02-23T05:45:01;98795.31;;;4.33;86.83
81372;BME280;70827;52.206;5.294;2024-02-23T05:47:27;98798.66;;;4.36;86.60
81372;BME280;70827;52.206;5.294;2024-02-23T05:49:53;98780.66;;;4.39;86.56
81372;BME280;70827;52.206;5.294;2024-02-23T05:52:18;98779.94;;;4.33;86.59
81372;BME280;70827;52.206;5.294;2024-02-23T05:54:44;98785.88;;;4.35;86.24
81372;BME280;70827;52.206;5.294;2024-02-23T05:57:09;98780.91;;;4.27;86.64
81372;BME280;70827;52.206;5.294;2024-02-23T05:59:38;98785.94;;;4.32;86.50
81372;BME280;70827;52.206;5.294;2024-02-23T06:02:03;98790.97;;;4.36;86.37
81372;BME280;70827;52.206;5.294;2024-02-23T06:04:29;98773.78;;;4.41;86.43
81372;BME280;70827;52.206;5.294;2024-02-23T06:06:55;98783.47;;;4.27;86.54
81372;BME280;70827;52.206;5.294;2024-02-23T06:09:21;98790.13;;;4.37;86.00
81372;BME280;70827;52.206;5.294;2024-02-23T06:11:46;98793.59;;;4.33;86.08
81372;BME280;70827;52.206;5.294;2024-02-23T06:14:12;98778.34;;;4.27;86.08
81372;BME280;70827;52.206;5.294;2024-02-23T06:16:40;98792.56;;;4.42;86.01
81372;BME280;70827;52.206;5.294;2024-02-23T06:19:06;98790.91;;;4.39;85.85
81372;BME280;70827;52.206;5.294;2024-02-23T06:21:31;98794.41;;;4.37;85.85
81372;BME280;70827;52.206;5.294;2024-02-23T06:23:57;98809.75;;;4.38;85.86
81372;BME280;70827;52.206;5.294;2024-02-23T06:26:22;98802.25;;;4.29;85.72
81372;BME280;70827;52.206;5.294;2024-02-23T06:28:48;98815.81;;;4.34;85.67
81372;BME280;70827;52.206;5.294;2024-02-23T06:31:14;98810.59;;;4.39;85.78
81372;BME280;70827;52.206;5.294;2024-02-23T06:33:42;98809.00;;;4.33;85.68
81372;BME280;70827;52.206;5.294;2024-02-23T06:36:09;98811.56;;;4.33;85.71
81372;BME280;70827;52.206;5.294;2024-02-23T06:38:35;98815.75;;;4.37;85.67
81372;BME280;70827;52.206;5.294;2024-02-23T06:41:00;98813.19;;;4.37;85.55
81372;BME280;70827;52.206;5.294;2024-02-23T06:43:26;98814.66;;;4.47;85.21
81372;BME280;70827;52.206;5.294;2024-02-23T06:45:52;98811.44;;;4.39;84.79
81372;BME280;70827;52.206;5.294;2024-02-23T06:48:20;98803.50;;;4.50;85.03
81372;BME280;70827;52.206;5.294;2024-02-23T06:50:49;98797.53;;;4.49;84.78
81372;BME280;70827;52.206;5.294;2024-02-23T06:53:14;98819.72;;;4.50;84.05
81372;BME280;70827;52.206;5.294;2024-02-23T06:55:40;98809.31;;;4.58;84.04
81372;BME280;70827;52.206;5.294;2024-02-23T06:58:05;98814.50;;;4.57;83.85
81372;BME280;70827;52.206;5.294;2024-02-23T07:00:31;98822.94;;;4.60;83.44
81372;BME280;70827;52.206;5.294;2024-02-23T07:02:57;98813.41;;;4.65;83.33
81372;BME280;70827;52.206;5.294;2024-02-23T07:05:22;98817.75;;;4.63;82.97
81372;BME280;70827;52.206;5.294;2024-02-23T07:07:50;98808.44;;;4.59;82.80
81372;BME280;70827;52.206;5.294;2024-02-23T07:10:16;98810.84;;;4.65;83.05
81372;BME280;70827;52.206;5.294;2024-02-23T07:12:41;98801.63;;;4.58;82.57
81372;BME280;70827;52.206;5.294;2024-02-23T07:15:08;98806.63;;;4.63;82.46
81372;BME280;70827;52.206;5.294;2024-02-23T07:17:33;98816.75;;;4.69;81.96
81372;BME280;70827;52.206;5.294;2024-02-23T07:19:59;98803.94;;;4.69;81.89
81372;BME280;70827;52.206;5.294;2024-02-23T07:22:24;98813.31;;;4.71;81.25
81372;BME280;70827;52.206;5.294;2024-02-23T07:24:53;98811.63;;;4.70;81.27
81372;BME280;70827;52.206;5.294;2024-02-23T07:27:18;98809.72;;;4.78;81.27
81372;BME280;70827;52.206;5.294;2024-02-23T07:29:44;98815.50;;;4.87;80.75
81372;BME280;70827;52.206;5.294;2024-02-23T07:32:09;98809.56;;;4.84;80.21
81372;BME280;70827;52.206;5.294;2024-02-23T07:34:35;98810.34;;;4.87;80.04
81372;BME280;70827;52.206;5.294;2024-02-23T07:37:01;98812.03;;;4.89;79.92
81372;BME280;70827;52.206;5.294;2024-02-23T07:39:26;98803.44;;;4.90;79.85
81372;BME280;70827;52.206;5.294;2024-02-23T07:41:54;98795.63;;;4.95;79.47
81372;BME280;70827;52.206;5.294;2024-02-23T07:44:20;98805.88;;;4.96;79.35
81372;BME280;70827;52.206;5.294;2024-02-23T07:46:46;98787.00;;;4.97;79.03
81372;BME280;70827;52.206;5.294;2024-02-23T07:49:11;98804.22;;;4.94;79.12
81372;BME280;70827;52.206;5.294;2024-02-23T07:51:37;98800.69;;;4.98;78.92
81372;BME280;70827;52.206;5.294;2024-02-23T07:54:03;98791.22;;;5.00;79.15
81372;BME280;70827;52.206;5.294;2024-02-23T07:56:28;98786.13;;;4.98;78.58
81372;BME280;70827;52.206;5.294;2024-02-23T07:58:57;98772.56;;;4.93;78.95
81372;BME280;70827;52.206;5.294;2024-02-23T08:01:22;98810.16;;;4.96;78.96
81372;BME280;70827;52.206;5.294;2024-02-23T08:03:48;98783.63;;;4.95;79.33
81372;BME280;70827;52.206;5.294;2024-02-23T08:06:13;98793.16;;;4.92;79.39
81372;BME280;70827;52.206;5.294;2024-02-23T08:08:39;98780.19;;;4.96;79.38
81372;BME280;70827;52.206;5.294;2024-02-23T08:11:05;98775.94;;;4.95;79.42
81372;BME280;70827;52.206;5.294;2024-02-23T08:13:30;98778.47;;;4.97;79.89
81372;BME280;70827;52.206;5.294;2024-02-23T08:15:59;98772.41;;;4.99;79.69
81372;BME280;70827;52.206;5.294;2024-02-23T08:18:25;98773.16;;;5.03;79.66
81372;BME280;70827;52.206;5.294;2024-02-23T08:20:51;98769.66;;;5.07;79.55
81372;BME280;70827;52.206;5.294;2024-02-23T08:23:17;98767.13;;;5.05;79.16
81372;BME280;70827;52.206;5.294;2024-02-23T08:25:43;98773.00;;;5.10;78.84
81372;BME280;70827;52.206;5.294;2024-02-23T08:28:09;98774.75;;;5.08;79.31
81372;BME280;70827;52.206;5.294;2024-02-23T08:30:34;98756.19;;;4.97;79.08
81372;BME280;70827;52.206;5.294;2024-02-23T08:33:03;98772.41;;;4.99;79.34
81372;BME280;70827;52.206;5.294;2024-02-23T08:35:28;98753.72;;;4.94;79.96
81372;BME280;70827;52.206;5.294;2024-02-23T08:37:54;98760.31;;;5.03;79.82
81372;BME280;70827;52.206;5.294;2024-02-23T08:40:20;98751.16;;;4.94;79.59
81372;BME280;70827;52.206;5.294;2024-02-23T08:42:45;98767.97;;;5.06;79.51
81372;BME280;70827;52.206;5.294;2024-02-23T08:45:11;98768.88;;;5.03;79.50
81372;BME280;70827;52.206;5.294;2024-02-23T08:47:36;98754.25;;;5.07;79.44
81372;BME280;70827;52.206;5.294;2024-02-23T08:50:06;98760.31;;;5.04;79.45
81372;BME280;70827;52.206;5.294;2024-02-23T08:52:32;98770.59;;;5.04;79.88
81372;BME280;70827;52.206;5.294;2024-02-23T08:54:57;98763.94;;;4.96;80.18
81372;BME280;70827;52.206;5.294;2024-02-23T08:57:23;98769.84;;;4.99;80.92
81372;BME280;70827;52.206;5.294;2024-02-23T08:59:48;98768.44;;;4.88;81.75
81372;BME280;70827;52.206;5.294;2024-02-23T09:02:14;98760.69;;;4.89;82.70
81372;BME280;70827;52.206;5.294;2024-02-23T09:04:40;98765.78;;;4.91;82.50
81372;BME280;70827;52.206;5.294;2024-02-23T09:07:08;98776.84;;;4.93;82.33
81372;BME280;70827;52.206;5.294;2024-02-23T09:09:33;98758.88;;;4.93;82.22
81372;BME280;70827;52.206;5.294;2024-02-23T09:11:59;98782.03;;;4.91;82.76
81372;BME280;70827;52.206;5.294;2024-02-23T09:14:25;98768.19;;;4.97;82.72
81372;BME280;70827;52.206;5.294;2024-02-23T09:16:50;98774.06;;;5.02;82.82
81372;BME280;70827;52.206;5.294;2024-02-23T09:19:16;98770.69;;;5.00;82.71
81372;BME280;70827;52.206;5.294;2024-02-23T09:21:42;98770.63;;;5.01;82.89
81372;BME280;70827;52.206;5.294;2024-02-23T09:24:10;98771.28;;;5.11;82.73
81372;BME280;70827;52.206;5.294;2024-02-23T09:26:36;98791.94;;;5.06;82.38
81372;BME280;70827;52.206;5.294;2024-02-23T09:29:01;98786.69;;;5.11;82.80
81372;BME280;70827;52.206;5.294;2024-02-23T09:31:27;98789.38;;;5.06;82.48
81372;BME280;70827;52.206;5.294;2024-02-23T09:33:53;98778.31;;;5.03;82.71
81372;BME280;70827;52.206;5.294;2024-02-23T09:36:18;98786.00;;;5.04;82.73
81372;BME280;70827;52.206;5.294;2024-02-23T09:38:44;98782.44;;;5.10;82.83
81372;BME280;70827;52.206;5.294;2024-02-23T09:41:21;98785.03;;;5.08;83.21
81372;BME280;70827;52.206;5.294;2024-02-23T09:43:47;98784.03;;;5.14;83.10
81372;BME280;70827;52.206;5.294;2024-02-23T09:46:13;98782.19;;;5.19;82.72
81372;BME280;70827;52.206;5.294;2024-02-23T09:48:39;98791.47;;;5.25;82.47
81372;BME280;70827;52.206;5.294;2024-02-23T09:51:04;98811.09;;;5.27;82.25
81372;BME280;70827;52.206;5.294;2024-02-23T09:53:31;98819.53;;;5.32;81.92
81372;BME280;70827;52.206;5.294;2024-02-23T09:55:56;98820.38;;;5.33;81.14
81372;BME280;70827;52.206;5.294;2024-02-23T09:58:25;98802.13;;;5.43;81.17
81372;BME280;70827;52.206;5.294;2024-02-23T10:00:51;98793.22;;;5.57;81.33
81372;BME280;70827;52.206;5.294;2024-02-23T10:03:18;98813.00;;;5.53;80.58
81372;BME280;70827;52.206;5.294;2024-02-23T10:05:43;98793.09;;;5.61;80.54
81372;BME280;70827;52.206;5.294;2024-02-23T10:08:09;98796.38;;;5.66;80.72
81372;BME280;70827;52.206;5.294;2024-02-23T10:10:35;98814.63;;;5.57;80.38
81372;BME280;70827;52.206;5.294;2024-02-23T10:13:01;98812.94;;;5.56;80.18
81372;BME280;70827;52.206;5.294;2024-02-23T10:15:29;98806.97;;;5.54;80.35
81372;BME280;70827;52.206;5.294;2024-02-23T10:17:55;98820.69;;;5.53;80.46
81372;BME280;70827;52.206;5.294;2024-02-23T10:20:20;98808.69;;;5.55;80.53
81372;BME280;70827;52.206;5.294;2024-02-23T10:22:46;98807.75;;;5.58;80.63
81372;BME280;70827;52.206;5.294;2024-02-23T10:25:12;98818.00;;;5.59;80.35
81372;BME280;70827;52.206;5.294;2024-02-23T10:27:37;98806.66;;;5.66;80.66
81372;BME280;70827;52.206;5.294;2024-02-23T10:30:04;98818.53;;;5.70;80.38
81372;BME280;70827;52.206;5.294;2024-02-23T10:32:33;98829.78;;;5.66;80.19
81372;BME280;70827;52.206;5.294;2024-02-23T10:35:00;98826.28;;;5.69;80.22
81372;BME280;70827;52.206;5.294;2024-02-23T10:37:26;98819.19;;;5.79;80.42
81372;BME280;70827;52.206;5.294;2024-02-23T10:39:53;98835.06;;;5.62;80.44
81372;BME280;70827;52.206;5.294;2024-02-23T10:42:22;98824.34;;;5.79;80.25
81372;BME280;70827;52.206;5.294;2024-02-23T10:44:48;98820.91;;;5.78;80.35
81372;BME280;70827;52.206;5.294;2024-02-23T10:47:14;98842.94;;;5.87;80.54
81372;BME280;70827;52.206;5.294;2024-02-23T10:49:43;98825.03;;;5.84;80.62
81372;BME280;70827;52.206;5.294;2024-02-23T10:52:09;98823.06;;;5.95;80.49
81372;BME280;70827;52.206;5.294;2024-02-23T10:54:36;98840.69;;;6.38;79.45
81372;BME280;70827;52.206;5.294;2024-02-23T10:57:02;98831.69;;;6.53;78.69
81372;BME280;70827;52.206;5.294;2024-02-23T10:59:28;98839.16;;;6.62;78.51
81372;BME280;70827;52.206;5.294;2024-02-23T11:01:54;98842.03;;;6.51;78.11
81372;BME280;70827;52.206;5.294;2024-02-23T11:04:20;98873.16;;;6.44;78.03
81372;BME280;70827;52.206;5.294;2024-02-23T11:06:52;98852.91;;;6.31;78.20
81372;BME280;70827;52.206;5.294;2024-02-23T11:09:21;98865.69;;;6.34;78.26
81372;BME280;70827;52.206;5.294;2024-02-23T11:11:52;98852.72;;;6.38;77.93
81372;BME280;70827;52.206;5.294;2024-02-23T11:14:18;98840.50;;;6.46;78.32
81372;BME280;70827;52.206;5.294;2024-02-23T11:16:43;98865.25;;;6.50;78.34
81372;BME280;70827;52.206;5.294;2024-02-23T11:19:09;98860.13;;;6.48;77.89
81372;BME280;70827;52.206;5.294;2024-02-23T11:21:35;98881.47;;;6.52;77.48
81372;BME280;70827;52.206;5.294;2024-02-23T11:24:05;98868.41;;;6.59;76.97
81372;BME280;70827;52.206;5.294;2024-02-23T11:26:31;98847.16;;;7.09;76.32
81372;BME280;70827;52.206;5.294;2024-02-23T11:28:57;98858.16;;;7.14;75.58
81372;BME280;70827;52.206;5.294;2024-02-23T11:31:24;98863.81;;;6.97;75.20
81372;BME280;70827;52.206;5.294;2024-02-23T11:33:50;98859.88;;;6.85;75.58
81372;BME280;70827;52.206;5.294;2024-02-23T11:36:22;98865.97;;;6.83;76.07
81372;BME280;70827;52.206;5.294;2024-02-23T11:38:47;98869.00;;;6.68;76.34
81372;BME280;70827;52.206;5.294;2024-02-23T11:41:16;98871.69;;;6.64;76.41
81372;BME280;70827;52.206;5.294;2024-02-23T11:43:41;98868.31;;;6.62;76.44
81372;BME280;70827;52.206;5.294;2024-02-23T11:46:07;98874.19;;;6.66;76.49
81372;BME280;70827;52.206;5.294;2024-02-23T11:48:33;98873.47;;;6.62;76.47
81372;BME280;70827;52.206;5.294;2024-02-23T11:50:58;98863.06;;;6.66;76.64
81372;BME280;70827;52.206;5.294;2024-02-23T11:53:24;98870.84;;;6.64;76.16
81372;BME280;70827;52.206;5.294;2024-02-23T11:55:50;98874.25;;;6.64;76.49
81372;BME280;70827;52.206;5.294;2024-02-23T11:58:18;98881.97;;;6.64;76.59
81372;BME280;70827;52.206;5.294;2024-02-23T12:00:44;98874.34;;;6.61;76.43
81372;BME280;70827;52.206;5.294;2024-02-23T12:03:09;98879.53;;;6.60;76.05
81372;BME280;70827;52.206;5.294;2024-02-23T12:05:35;98881.03;;;6.67;75.97
81372;BME280;70827;52.206;5.294;2024-02-23T12:08:01;98875.19;;;6.62;76.09
81372;BME280;70827;52.206;5.294;2024-02-23T12:10:26;98880.09;;;6.70;75.92
81372;BME280;70827;52.206;5.294;2024-02-23T12:12:53;98877.66;;;6.65;76.18
81372;BME280;70827;52.206;5.294;2024-02-23T12:15:21;98868.97;;;6.69;76.03
81372;BME280;70827;52.206;5.294;2024-02-23T12:17:47;98888.59;;;6.73;75.50
81372;BME280;70827;52.206;5.294;2024-02-23T12:20:13;98885.03;;;6.77;75.41
81372;BME280;70827;52.206;5.294;2024-02-23T12:22:38;98891.88;;;6.78;74.81
81372;BME280;70827;52.206;5.294;2024-02-23T12:25:06;98888.16;;;6.87;74.73
81372;BME280;70827;52.206;5.294;2024-02-23T12:27:32;98886.63;;;6.81;74.02
81372;BME280;70827;52.206;5.294;2024-02-23T12:29:58;98880.31;;;6.91;74.06
81372;BME280;70827;52.206;5.294;2024-02-23T12:32:26;98888.88;;;6.92;74.27
81372;BME280;70827;52.206;5.294;2024-02-23T12:34:52;98887.16;;;6.92;74.56
81372;BME280;70827;52.206;5.294;2024-02-23T12:37:18;98916.28;;;6.94;74.55
81372;BME280;70827;52.206;5.294;2024-02-23T12:39:43;98904.50;;;6.86;74.36
81372;BME280;70827;52.206;5.294;2024-02-23T12:42:09;98896.00;;;6.84;74.42
81372;BME280;70827;52.206;5.294;2024-02-23T12:44:35;98887.00;;;6.97;74.47
81372;BME280;70827;52.206;5.294;2024-02-23T12:47:01;98890.53;;;6.94;74.23
81372;BME280;70827;52.206;5.294;2024-02-23T12:49:29;98909.16;;;7.03;74.19
81372;BME280;70827;52.206;5.294;2024-02-23T12:51:55;98897.38;;;7.23;73.35
81372;BME280;70827;52.206;5.294;2024-02-23T12:54:20;98912.16;;;7.17;72.78
81372;BME280;70827;52.206;5.294;2024-02-23T12:56:46;98912.47;;;7.34;72.57
81372;BME280;70827;52.206;5.294;2024-02-23T12:59:11;98911.47;;;7.38;72.13
81372;BME280;70827;52.206;5.294;2024-02-23T13:01:37;98906.25;;;7.41;72.00
81372;BME280;70827;52.206;5.294;2024-02-23T13:04:03;98914.91;;;7.39;72.44